Ile Lifou, New Caledonia
Current Conditions -  °F | °C
As of 1:00 PM on Friday 19 Dec 2014 (Local Time) from NWWW Reporting Station
Broken Clouds Broken Clouds  
Wind Chill: 86°   Ceiling: 3700
Heat Index: 92°   Visibility: 6mi
Dew Point: 72°   Wind: 12mph
Humidity: 62%   Direction: 190°S
Pressure: 29.83"   Gusts: NA
Location:  20.9°S, 167.2°E
Report Text: NWWW 190200Z AUTO 19010KT 160V220 9999 BKN037/// BKN054///BKN064/// ///TCU 30/22 Q1010
Loading
Personal Weather Stations






























Interactive Weather Map New forecast layout! Learn more

10-Day Weather Forecast

Advertisements
Track Severe Weather on mobile